Time;durP1;ratioP1;P1;durP2;ratioP2;P2;SDS_P1;SDS_P2;PMS_P1;PMS_P2;Temp;Humidity;BMP_temperature;BMP_pressure;BME280_temperature;BME280_humidity;BME280_pressure;Samples;Min_cycle;Max_cycle;Signal;HPM_P1;HPM_P2
2023/03/14 00:03:43;;;;;;;5.40;1.40;;;;;;;17.66;53.89;98397.88;20873343;28;20484;-87
2023/03/14 00:13:50;;;;;;;5.32;2.15;;;;;;;17.44;54.11;98345.97;20824439;28;20071;-86
2023/03/14 00:23:52;;;;;;;3.90;1.80;;;;;;;17.44;53.88;98341.44;20862011;28;20571;-87
2023/03/14 00:33:53;;;;;;;4.70;1.42;;;;;;;17.63;53.68;98372.22;20873752;28;20131;-88
2023/03/14 00:43:55;;;;;;;3.72;1.50;;;;;;;17.63;53.79;98357.91;20872070;28;20057;-87
2023/03/14 00:53:57;;;;;;;4.57;1.83;;;;;;;17.57;53.90;98345.25;20839350;28;20076;-88
2023/03/14 01:03:58;;;;;;;4.05;1.80;;;;;;;17.61;53.88;98341.13;20871256;28;20102;-88
2023/03/14 01:14:00;;;;;;;5.25;1.88;;;;;;;17.61;54.17;98327.69;20858460;28;20049;-88
2023/03/14 01:24:04;;;;;;;3.97;2.05;;;;;;;17.31;54.28;98282.19;20833332;28;20123;-88
2023/03/14 01:34:09;;;;;;;4.28;1.35;;;;;;;17.46;54.38;98309.81;20871688;28;20045;-88
2023/03/14 01:44:12;;;;;;;2.70;1.20;;;;;;;17.60;54.52;98343.00;20859381;28;20524;-88
2023/03/14 01:54:25;;;;;;;3.65;1.40;;;;;;;17.59;54.54;98319.81;20860010;28;20072;-88
2023/03/14 02:04:30;;;;;;;2.35;1.00;;;;;;;17.59;54.74;98324.34;20875089;28;20456;-88
2023/03/14 02:14:34;;;;;;;4.53;1.38;;;;;;;17.59;54.57;98324.34;20879483;28;20072;-88
2023/03/14 02:25:11;;;;;;;3.90;1.40;;;;;;;17.59;54.72;98314.44;20834926;28;20051;-88
2023/03/14 02:35:19;;;;;;;2.78;1.13;;;;;;;17.44;54.64;98290.34;20884123;28;20048;-88
2023/03/14 02:45:21;;;;;;;2.72;1.20;;;;;;;17.57;54.70;98296.81;20873177;28;20061;-87
2023/03/14 02:55:26;;;;;;;3.60;1.83;;;;;;;17.57;54.59;98303.06;20877975;28;20045;-88
2023/03/14 03:05:32;;;;;;;2.85;1.30;;;;;;;17.56;55.07;98295.16;20859394;28;20108;-88
2023/03/14 03:15:34;;;;;;;3.78;1.35;;;;;;;17.56;54.74;98297.84;20873907;28;20045;-88
2023/03/14 03:25:36;;;;;;;3.70;1.33;;;;;;;17.56;54.61;98308.63;20875257;28;20075;-88
2023/03/14 03:35:46;;;;;;;2.45;1.10;;;;;;;17.54;54.80;98306.94;20870555;28;20468;-88
2023/03/14 03:45:50;;;;;;;2.78;1.27;;;;;;;17.54;54.95;98301.56;20872733;28;20501;-87
2023/03/14 03:55:54;;;;;;;2.63;1.10;;;;;;;17.54;54.95;98296.19;20872041;28;20132;-88
2023/03/14 04:06:04;;;;;;;2.70;0.93;;;;;;;17.43;54.88;98283.31;20845979;28;20072;-88
2023/03/14 04:16:15;;;;;;;1.98;0.90;;;;;;;17.28;55.03;98258.41;20832083;28;20090;-87
2023/03/14 04:26:17;;;;;;;1.92;0.75;;;;;;;17.43;55.08;98283.31;20878149;28;20047;-88
2023/03/14 04:36:19;;;;;;;1.83;0.85;;;;;;;17.52;54.97;98297.44;20862197;28;20137;-88
2023/03/14 04:46:22;;;;;;;2.30;1.20;;;;;;;17.37;55.17;98276.84;20870332;28;20076;-88
2023/03/14 04:56:24;;;;;;;1.55;0.70;;;;;;;17.37;55.16;98270.66;20871031;28;20053;-87
2023/03/14 05:06:26;;;;;;;1.85;0.95;;;;;;;17.50;55.26;98268.03;20867106;28;20041;-87
2023/03/14 05:16:59;;;;;;;2.55;1.27;;;;;;;17.51;55.69;98272.38;20866290;28;20049;-88
2023/03/14 05:27:19;;;;;;;1.50;0.68;;;;;;;17.51;55.49;98260.81;20876050;28;20056;-87
2023/03/14 05:37:41;;;;;;;1.90;0.60;;;;;;;17.50;55.54;98240.31;20883038;28;20127;-87
2023/03/14 05:48:01;;;;;;;2.28;0.90;;;;;;;17.45;55.52;98231.97;20875623;28;20045;-87
2023/03/14 05:58:14;;;;;;;0.82;0.52;;;;;;;17.49;55.69;98231.41;20877782;28;20041;-87
2023/03/14 06:08:38;;;;;;;1.92;0.73;;;;;;;17.48;55.59;98247.75;20865064;28;20095;-87
2023/03/14 06:18:40;;;;;;;1.70;0.70;;;;;;;17.44;55.65;98247.31;20853620;28;20407;-88
2023/03/14 06:28:44;;;;;;;1.42;0.63;;;;;;;17.44;55.65;98251.84;20869707;28;20057;-87
2023/03/14 06:38:46;;;;;;;1.27;0.63;;;;;;;17.47;55.71;98248.78;20871765;28;20044;-87
2023/03/14 06:48:48;;;;;;;0.85;0.80;;;;;;;17.47;55.90;98263.06;20876700;28;20455;-87
2023/03/14 06:58:50;;;;;;;0.98;0.50;;;;;;;17.49;55.93;98285.19;20880364;28;20122;-91
2023/03/14 07:08:55;;;;;;;1.90;0.67;;;;;;;17.49;55.96;98309.41;20874144;28;20064;-89
2023/03/14 07:18:57;;;;;;;2.03;0.73;;;;;;;17.49;56.05;98327.41;20875922;28;20405;-89
2023/03/14 07:28:59;;;;;;;0.52;0.40;;;;;;;17.44;55.96;98368.34;20882354;28;20106;-89
2023/03/14 07:39:01;;;;;;;0.63;0.47;;;;;;;17.50;56.07;98442.88;20865327;28;20084;-89
2023/03/14 07:49:12;;;;;;;0.95;0.63;;;;;;;17.45;56.06;98484.81;20882355;28;20052;-89
2023/03/14 07:59:14;;;;;;;1.10;0.50;;;;;;;17.44;56.00;98534.25;20881831;28;20535;-88
2023/03/14 08:09:15;;;;;;;0.93;0.77;;;;;;;17.48;55.68;98586.69;20870647;28;20076;-90
2023/03/14 08:19:17;;;;;;;0.70;0.50;;;;;;;17.46;55.41;98613.75;20877246;28;20040;-90
2023/03/14 08:29:19;;;;;;;1.02;0.40;;;;;;;17.45;55.30;98668.56;20881114;28;20365;-87
2023/03/14 08:39:20;;;;;;;0.40;0.35;;;;;;;17.46;55.32;98707.91;20848079;28;20053;-88
2023/03/14 08:49:22;;;;;;;0.85;0.40;;;;;;;17.41;55.55;98739.91;20796858;28;20150;-88
2023/03/14 08:59:24;;;;;;;0.68;0.40;;;;;;;17.45;55.54;98792.31;20731282;28;20056;-85
2023/03/14 09:09:29;;;;;;;0.77;0.45;;;;;;;17.45;55.57;98847.94;20736270;28;20529;-87
2023/03/14 09:19:31;;;;;;;1.38;0.47;;;;;;;17.35;55.63;98849.06;20745357;28;20132;-84
2023/03/14 09:29:33;;;;;;;1.17;0.60;;;;;;;17.45;55.54;98893.69;20754093;28;20056;-85
2023/03/14 09:39:34;;;;;;;0.50;0.50;;;;;;;17.45;55.44;98944.78;20761897;28;20100;-86
2023/03/14 09:49:39;;;;;;;1.55;0.40;;;;;;;17.47;55.17;98980.44;20767874;28;20124;-87
2023/03/14 09:59:43;;;;;;;0.50;0.40;;;;;;;17.47;54.99;99002.78;20792860;28;20398;-85
2023/03/14 10:09:48;;;;;;;2.17;0.50;;;;;;;17.34;54.68;99010.63;20804986;28;20057;-86
2023/03/14 10:19:58;;;;;;;0.90;0.45;;;;;;;17.48;54.38;99082.47;20790812;28;20045;-86
2023/03/14 10:30:06;;;;;;;0.88;0.50;;;;;;;17.46;54.02;99106.03;20768189;28;20148;-86
2023/03/14 10:40:13;;;;;;;0.85;0.47;;;;;;;17.30;53.74;99114.19;20817234;28;20053;-85
2023/03/14 10:50:25;;;;;;;1.35;0.60;;;;;;;17.33;53.38;99170.31;20814757;28;20063;-86
2023/03/14 11:00:27;;;;;;;2.13;0.70;;;;;;;17.35;53.20;99211.34;20872803;28;20067;-86
2023/03/14 11:10:34;;;;;;;1.70;0.70;;;;;;;17.44;52.60;99264.09;20863403;28;20042;-86
2023/03/14 11:20:44;;;;;;;2.38;0.80;;;;;;;17.45;52.20;99292.66;20868614;28;20493;-86
2023/03/14 11:30:53;;;;;;;1.95;0.73;;;;;;;17.45;51.46;99345.63;20877391;28;20052;-86
2023/03/14 11:40:57;;;;;;;1.70;0.70;;;;;;;17.45;51.17;99373.38;20876922;28;20047;-86
2023/03/14 11:50:59;;;;;;;2.20;0.70;;;;;;;17.45;50.52;99405.66;20914449;28;20047;-86
2023/03/14 12:01:07;;;;;;;2.85;0.80;;;;;;;17.39;49.92;99420.63;20872014;28;20060;-87
2023/03/14 12:11:17;;;;;;;3.25;1.02;;;;;;;17.45;49.41;99455.94;20869008;28;20048;-86
2023/03/14 12:21:19;;;;;;;1.95;0.75;;;;;;;17.44;49.11;99478.47;20881168;28;20493;-86
2023/03/14 12:31:30;;;;;;;3.03;0.73;;;;;;;17.42;48.59;99521.69;20892040;28;20068;-86
2023/03/14 12:41:40;;;;;;;3.13;0.82;;;;;;;17.40;48.36;99526.41;20908977;28;20048;-86
2023/03/14 12:51:43;;;;;;;2.30;0.77;;;;;;;17.32;47.66;99529.09;20878569;28;20064;-86
2023/03/14 13:01:53;;;;;;;1.40;0.77;;;;;;;17.37;47.72;99567.09;20877890;28;20110;-86
2023/03/14 13:12:02;;;;;;;2.00;0.90;;;;;;;17.35;47.22;99583.38;20860248;28;20143;-87
2023/03/14 13:22:12;;;;;;;2.00;0.95;;;;;;;17.34;46.91;99607.75;20856459;28;20052;-86
2023/03/14 13:32:22;;;;;;;2.10;0.90;;;;;;;17.30;46.69;99633.31;20873501;28;20504;-86
2023/03/14 13:42:28;;;;;;;2.13;0.85;;;;;;;17.37;46.58;99680.06;20858934;28;20881;-86
2023/03/14 13:52:36;;;;;;;1.77;0.60;;;;;;;17.37;46.21;99715.03;20877340;28;20053;-86
2023/03/14 14:02:39;;;;;;;2.25;0.70;;;;;;;17.38;45.79;99738.25;20881457;28;20377;-86
2023/03/14 14:12:49;;;;;;;1.50;0.60;;;;;;;17.36;45.65;99769.84;20902215;28;20045;-88
2023/03/14 14:22:51;;;;;;;1.35;0.68;;;;;;;17.29;45.47;99793.03;20873512;28;20417;-88
2023/03/14 14:33:17;;;;;;;1.42;0.50;;;;;;;17.21;45.18;99800.00;20884744;28;20055;-87
2023/03/14 14:43:22;;;;;;;1.35;0.60;;;;;;;17.25;45.12;99824.75;20857873;28;20151;-82
2023/03/14 14:53:36;;;;;;;1.05;0.50;;;;;;;17.42;45.39;99875.97;20869975;28;20083;-85
2023/03/14 15:03:38;;;;;;;1.42;0.47;;;;;;;17.29;45.50;99868.34;20854621;28;20106;-85
2023/03/14 15:13:39;;;;;;;1.77;0.70;;;;;;;17.54;45.89;99915.09;20856727;28;20056;-86
2023/03/14 15:23:41;;;;;;;1.30;0.50;;;;;;;17.56;45.99;99925.66;20855769;28;20055;-85
2023/03/14 15:33:44;;;;;;;0.80;0.40;;;;;;;17.58;46.24;99953.28;20875762;28;20056;-86
2023/03/14 15:43:46;;;;;;;1.73;0.63;;;;;;;17.52;45.64;99966.34;20872161;28;20053;-85
2023/03/14 15:53:47;;;;;;;1.15;0.68;;;;;;;17.39;45.39;99984.75;20884621;28;20052;-86
2023/03/14 16:03:51;;;;;;;1.30;0.50;;;;;;;17.40;45.13;100005.28;20863305;28;20053;-86
2023/03/14 16:13:52;;;;;;;1.73;0.60;;;;;;;17.35;44.94;100007.59;20841505;28;20049;-84
2023/03/14 16:23:54;;;;;;;2.40;0.63;;;;;;;17.32;44.89;100045.56;20882626;28;20067;-82
2023/03/14 16:34:00;;;;;;;1.83;0.65;;;;;;;17.25;45.11;100073.09;20847529;28;20164;-84
2023/03/14 16:44:02;;;;;;;1.67;0.75;;;;;;;17.27;44.92;100128.56;20860354;28;20099;-87
2023/03/14 16:54:03;;;;;;;1.00;0.80;;;;;;;17.25;45.00;100150.22;20841595;28;20060;-86
2023/03/14 17:04:08;;;;;;;0.98;0.50;;;;;;;17.24;44.96;100170.94;20877164;28;20041;-83
2023/03/14 17:14:09;;;;;;;1.20;0.50;;;;;;;17.22;44.91;100180.97;20872625;28;20053;-84
2023/03/14 17:24:11;;;;;;;1.27;0.50;;;;;;;17.20;45.09;100193.72;20863464;28;20061;-85
2023/03/14 17:34:12;;;;;;;2.22;0.60;;;;;;;17.19;45.18;100208.16;20867126;28;20044;-84
2023/03/14 17:44:14;;;;;;;1.15;0.60;;;;;;;17.18;45.04;100211.00;20867786;28;20115;-83
2023/03/14 17:54:16;;;;;;;1.30;0.70;;;;;;;17.19;45.10;100235.06;20857837;28;20144;-84
2023/03/14 18:04:19;;;;;;;2.33;0.60;;;;;;;17.17;45.38;100247.81;20869386;28;20445;-88
2023/03/14 18:14:20;;;;;;;1.13;0.60;;;;;;;17.16;45.31;100297.22;20866160;28;20099;-88
2023/03/14 18:24:22;;;;;;;1.35;0.75;;;;;;;17.14;45.43;100339.56;20867547;28;20406;-88
2023/03/14 18:34:24;;;;;;;2.97;0.73;;;;;;;17.14;45.38;100327.97;20866813;28;20084;-88
2023/03/14 18:44:26;;;;;;;0.60;0.50;;;;;;;17.13;45.26;100337.03;20863317;28;20045;-87
2023/03/14 18:54:27;;;;;;;1.70;0.70;;;;;;;17.13;45.25;100337.84;20866842;28;20183;-87
2023/03/14 19:04:29;;;;;;;1.67;0.68;;;;;;;17.12;45.33;100349.59;20863158;28;20048;-86
2023/03/14 19:14:31;;;;;;;1.15;0.50;;;;;;;17.10;45.33;100347.06;20861905;28;20179;-85
2023/03/14 19:24:33;;;;;;;2.33;0.68;;;;;;;16.94;45.17;100330.63;20857813;28;22345;-87
2023/03/14 19:34:35;;;;;;;2.03;0.57;;;;;;;17.09;45.34;100349.91;20860649;28;20057;-87
2023/03/14 19:44:37;;;;;;;1.48;0.57;;;;;;;17.09;45.26;100357.97;20858505;28;20048;-86
2023/03/14 19:54:40;;;;;;;0.73;0.40;;;;;;;17.07;45.10;100354.56;20852093;28;20051;-87
2023/03/14 20:04:43;;;;;;;1.17;0.60;;;;;;;17.06;45.11;100375.25;20845438;28;20113;-86
2023/03/14 20:14:47;;;;;;;1.10;0.60;;;;;;;17.04;45.10;100392.50;20843290;28;20383;-87
2023/03/14 20:24:51;;;;;;;0.80;0.35;;;;;;;17.04;44.90;100403.28;20831334;28;20405;-87
2023/03/14 20:34:55;;;;;;;1.07;0.47;;;;;;;17.03;44.76;100401.56;20860947;28;20056;-87
2023/03/14 20:44:58;;;;;;;1.92;0.90;;;;;;;17.03;44.78;100404.25;20819589;28;20055;-87
2023/03/14 20:55:03;;;;;;;1.90;0.80;;;;;;;17.02;44.78;100419.56;20850154;28;20057;-88
2023/03/14 21:05:08;;;;;;;1.30;0.50;;;;;;;17.02;44.60;100443.78;20846280;28;20051;-87
2023/03/14 21:15:13;;;;;;;0.98;0.55;;;;;;;16.91;44.58;100417.84;20843803;28;20052;-86
2023/03/14 21:25:16;;;;;;;2.17;0.60;;;;;;;17.01;44.43;100446.59;20853749;28;20536;-88
2023/03/14 21:35:18;;;;;;;1.48;0.60;;;;;;;17.01;44.37;100457.34;20842165;28;20127;-87
2023/03/14 21:45:24;;;;;;;1.25;0.70;;;;;;;16.95;44.34;100443.44;20834470;28;20487;-87
2023/03/14 21:55:28;;;;;;;1.40;0.52;;;;;;;17.00;44.26;100440.34;20863056;28;20564;-87
2023/03/14 22:05:29;;;;;;;1.67;0.70;;;;;;;16.99;44.31;100467.41;20853081;28;20049;-88
2023/03/14 22:15:33;;;;;;;1.85;0.50;;;;;;;16.99;44.21;100465.53;20830811;28;20041;-87
2023/03/14 22:25:38;;;;;;;1.15;0.50;;;;;;;16.99;44.32;100472.78;20861000;28;20119;-87
2023/03/14 22:35:40;;;;;;;0.85;0.40;;;;;;;16.98;44.21;100469.22;20873666;28;20599;-87
2023/03/14 22:45:42;;;;;;;0.90;0.40;;;;;;;16.98;44.05;100479.97;20856450;28;20536;-86
2023/03/14 22:55:45;;;;;;;2.28;0.70;;;;;;;16.94;44.33;100481.22;20856856;28;20048;-86
2023/03/14 23:05:47;;;;;;;1.45;0.73;;;;;;;16.99;44.14;100486.22;20859202;28;20059;-87
2023/03/14 23:15:49;;;;;;;1.35;0.50;;;;;;;16.96;44.11;100496.22;20843126;28;20521;-87
2023/03/14 23:25:51;;;;;;;1.48;0.65;;;;;;;16.96;44.11;100501.59;20865373;28;20165;-87
2023/03/14 23:35:55;;;;;;;0.88;0.68;;;;;;;16.96;43.90;100507.00;20855231;28;20642;-87
2023/03/14 23:45:57;;;;;;;1.15;0.50;;;;;;;16.96;43.84;100519.56;20850462;28;20136;-87
2023/03/14 23:56:00;;;;;;;2.47;0.77;;;;;;;16.97;44.27;100529.34;20850175;28;20044;-87
